Time;durP1;ratioP1;P1;durP2;ratioP2;P2;SDS_P1;SDS_P2;PMS_P1;PMS_P2;Temp;Humidity;BMP_temperature;BMP_pressure;BME280_temperature;BME280_humidity;BME280_pressure;Samples;Min_cycle;Max_cycle;Signal;HPM_P1;HPM_P2
2021/05/04 05:01:28;;;;;;;4.07;3.67;;;;;;;-142.70;100.00;60390.16;5387764;24;20060;-77
2021/05/04 05:03:53;;;;;;;3.35;3.05;;;;;;;-142.70;100.00;60390.16;4712769;30;20467;-78
2021/05/04 05:06:19;;;;;;;3.40;3.10;;;;;;;-142.70;100.00;60390.16;4748865;30;20490;-78
2021/05/04 05:08:44;;;;;;;5.65;3.08;;;;;;;-142.70;100.00;60390.16;4748196;30;20035;-78
2021/05/04 05:11:10;;;;;;;2.83;2.60;;;;;;;-142.70;100.00;60390.16;4749644;30;20054;-77
2021/05/04 05:13:35;;;;;;;5.70;5.13;;;;;;;-142.70;100.00;60390.16;4747702;30;20047;-78
2021/05/04 05:16:01;;;;;;;4.65;4.25;;;;;;;-142.70;100.00;60390.16;4749111;30;20047;-77
2021/05/04 05:18:26;;;;;;;3.40;3.20;;;;;;;-142.70;100.00;60390.16;4749040;30;20102;-79
2021/05/04 05:20:52;;;;;;;3.95;3.58;;;;;;;-142.70;100.00;60390.16;4748512;30;20036;-80
2021/05/04 05:23:17;;;;;;;3.60;3.30;;;;;;;-142.70;100.00;60390.16;4763905;30;20034;-79
2021/05/04 05:25:43;;;;;;;9.80;4.60;;;;;;;-142.70;100.00;60390.16;4748031;30;20664;-81
2021/05/04 05:28:08;;;;;;;3.28;2.97;;;;;;;-142.70;100.00;60390.16;4749178;30;20089;-80
2021/05/04 05:30:34;;;;;;;3.58;3.25;;;;;;;-142.70;100.00;60390.16;4747979;30;20036;-81
2021/05/04 05:32:59;;;;;;;3.80;3.40;;;;;;;-142.70;100.00;60390.16;4749021;30;20677;-81
2021/05/04 05:35:25;;;;;;;6.28;3.40;;;;;;;-142.70;100.00;60390.16;4747927;30;20118;-82
2021/05/04 05:37:50;;;;;;;6.97;3.35;;;;;;;-142.70;100.00;60390.16;4749055;30;20531;-81
2021/05/04 05:40:16;;;;;;;6.22;3.60;;;;;;;-142.70;100.00;60390.16;4733643;30;20951;-82
2021/05/04 05:42:41;;;;;;;2.72;2.53;;;;;;;-142.70;100.00;60390.16;4730207;30;20036;-80
2021/05/04 05:45:07;;;;;;;3.47;3.17;;;;;;;-142.70;100.00;60390.16;4731538;30;20495;-81
2021/05/04 05:47:33;;;;;;;3.30;3.10;;;;;;;-142.70;100.00;60390.16;4744588;30;20045;-82
2021/05/04 05:49:58;;;;;;;10.60;2.80;;;;;;;-142.70;100.00;60390.16;4731736;30;20048;-80
2021/05/04 05:52:24;;;;;;;2.90;2.70;;;;;;;-142.70;100.00;60390.16;4730051;30;20426;-80
2021/05/04 05:54:49;;;;;;;3.78;2.97;;;;;;;-142.70;100.00;60390.16;4717068;30;20032;-81
2021/05/04 05:57:15;;;;;;;3.80;2.45;;;;;;;-142.70;100.00;60390.16;4746209;30;20036;-79
2021/05/04 05:59:40;;;;;;;3.45;3.15;;;;;;;-142.70;100.00;60390.16;4730968;30;20029;-79
2021/05/04 06:02:05;;;;;;;3.22;2.95;;;;;;;-142.70;100.00;60390.16;4732502;30;20067;-79
2021/05/04 06:04:31;;;;;;;3.45;3.00;;;;;;;-142.70;100.00;60390.16;4747419;30;20460;-79
2021/05/04 06:06:57;;;;;;;3.20;2.95;;;;;;;-142.70;100.00;60390.16;4748585;30;20469;-79
2021/05/04 06:09:22;;;;;;;3.55;2.75;;;;;;;-142.70;100.00;60390.16;4747670;30;20054;-79
2021/05/04 06:11:48;;;;;;;5.07;2.47;;;;;;;-142.70;100.00;60390.16;4737672;30;20039;-79
2021/05/04 06:14:14;;;;;;;2.60;2.40;;;;;;;-142.70;100.00;60390.16;4735936;30;20055;-78
2021/05/04 06:16:39;;;;;;;4.88;2.72;;;;;;;-142.70;100.00;60390.16;4752401;30;20085;-79
2021/05/04 06:19:05;;;;;;;3.10;2.78;;;;;;;-142.70;100.00;60390.16;4751688;30;20472;-79
2021/05/04 06:21:30;;;;;;;3.05;2.80;;;;;;;-142.70;100.00;60390.16;4765579;30;20040;-78
2021/05/04 06:23:56;;;;;;;3.63;2.60;;;;;;;-142.70;100.00;60390.16;4751384;30;20028;-79
2021/05/04 06:26:22;;;;;;;5.55;2.58;;;;;;;-142.70;100.00;60390.16;4732912;30;20059;-79
2021/05/04 06:28:49;;;;;;;4.05;2.70;;;;;;;-142.70;100.00;60390.16;4735339;30;20035;-78
2021/05/04 06:31:18;;;;;;;2.88;2.67;;;;;;;-142.70;100.00;60390.16;4713283;30;20032;-79
2021/05/04 06:33:44;;;;;;;3.15;2.58;;;;;;;-142.70;100.00;60390.16;4733102;30;20603;-81
2021/05/04 06:36:10;;;;;;;2.80;2.70;;;;;;;-142.70;100.00;60390.16;4736652;30;20035;-79
2021/05/04 06:38:35;;;;;;;3.40;2.75;;;;;;;-142.70;100.00;60390.16;4735971;30;20105;-79
2021/05/04 06:41:01;;;;;;;3.50;2.60;;;;;;;-142.70;100.00;60390.16;4736222;30;20395;-80
2021/05/04 06:43:27;;;;;;;2.30;2.10;;;;;;;-142.70;100.00;60390.16;4741681;30;20118;-79
2021/05/04 06:45:53;;;;;;;3.05;2.60;;;;;;;-142.70;100.00;60390.16;4747777;30;20032;-78
2021/05/04 06:48:18;;;;;;;2.47;2.03;;;;;;;-142.70;100.00;60390.16;4747225;30;20046;-79
2021/05/04 06:50:44;;;;;;;2.50;2.30;;;;;;;-142.70;100.00;60390.16;4713622;30;20039;-78
2021/05/04 06:53:09;;;;;;;5.60;2.47;;;;;;;-142.70;100.00;60390.16;4728399;30;20116;-82
2021/05/04 06:55:35;;;;;;;3.45;2.97;;;;;;;-142.70;100.00;60390.16;4747925;30;20104;-79
2021/05/04 06:58:00;;;;;;;3.10;2.65;;;;;;;-142.70;100.00;60390.16;4761358;30;20036;-80
2021/05/04 07:00:26;;;;;;;3.65;2.70;;;;;;;-142.70;100.00;60390.16;4749330;30;20517;-80
2021/05/04 07:02:52;;;;;;;4.88;2.78;;;;;;;-142.70;100.00;60390.16;4735153;30;20055;-80
2021/05/04 07:05:18;;;;;;;2.78;2.58;;;;;;;-142.70;100.00;60390.16;4729359;30;20453;-80
2021/05/04 07:07:44;;;;;;;3.08;2.63;;;;;;;-142.70;100.00;60390.16;4736496;30;20032;-79
2021/05/04 07:10:09;;;;;;;3.47;2.67;;;;;;;-142.70;100.00;60390.16;4734032;30;20777;-79
2021/05/04 07:12:35;;;;;;;2.40;2.20;;;;;;;-142.70;100.00;60390.16;4728500;30;20024;-80
2021/05/04 07:15:01;;;;;;;4.43;2.42;;;;;;;-142.70;100.00;60390.16;4732412;30;20105;-80
2021/05/04 07:17:27;;;;;;;3.92;2.63;;;;;;;-142.70;100.00;60390.16;4717108;30;20047;-80
2021/05/04 07:19:54;;;;;;;2.78;2.58;;;;;;;-142.70;100.00;60390.16;4730799;30;20042;-82
2021/05/04 07:22:23;;;;;;;4.78;2.45;;;;;;;-142.70;100.00;60390.16;4731585;30;20035;-83
2021/05/04 07:24:49;;;;;;;7.00;2.70;;;;;;;-142.70;100.00;60390.16;4749977;30;20676;-84
2021/05/04 07:27:14;;;;;;;3.85;2.10;;;;;;;-142.70;100.00;60390.16;4730941;30;20414;-83
2021/05/04 07:29:40;;;;;;;2.53;2.33;;;;;;;-142.70;100.00;60390.16;4750157;30;20032;-84
2021/05/04 07:32:05;;;;;;;2.22;2.03;;;;;;;-142.70;100.00;60390.16;4736158;30;20043;-78
2021/05/04 07:34:31;;;;;;;4.25;2.50;;;;;;;-142.70;100.00;60390.16;4734927;30;20468;-81
2021/05/04 07:36:57;;;;;;;6.25;2.40;;;;;;;-142.70;100.00;60390.16;4747915;30;20481;-80
2021/05/04 07:39:23;;;;;;;2.55;2.35;;;;;;;-142.70;100.00;60390.16;4760066;30;20039;-80
2021/05/04 07:41:48;;;;;;;3.97;2.30;;;;;;;-142.70;100.00;60390.16;4749760;30;20513;-80
2021/05/04 07:44:14;;;;;;;3.10;2.60;;;;;;;-142.70;100.00;60390.16;4734619;30;20032;-80
2021/05/04 07:46:39;;;;;;;4.03;2.67;;;;;;;-142.70;100.00;60390.16;4735002;30;20043;-81
2021/05/04 07:49:11;;;;;;;4.20;2.55;;;;;;;-142.70;100.00;60390.16;4786814;24;20056;-82
2021/05/04 07:51:37;;;;;;;2.50;2.30;;;;;;;-142.70;100.00;60390.16;4712128;30;20041;-82
2021/05/04 07:54:03;;;;;;;10.32;2.97;;;;;;;-142.70;100.00;60390.16;4714740;30;20712;-83
2021/05/04 07:56:28;;;;;;;2.10;1.90;;;;;;;-142.70;100.00;60390.16;4698943;30;20153;-81
2021/05/04 07:58:54;;;;;;;4.43;2.15;;;;;;;-142.70;100.00;60390.16;4701161;30;20052;-83
2021/05/04 08:01:19;;;;;;;2.75;2.42;;;;;;;-142.70;100.00;60390.16;4715477;30;20033;-82
2021/05/04 08:03:45;;;;;;;2.95;2.42;;;;;;;-142.70;100.00;60390.16;4731061;30;20040;-81
2021/05/04 08:06:10;;;;;;;2.40;2.20;;;;;;;-142.70;100.00;60390.16;4716193;30;20037;-80
2021/05/04 08:08:36;;;;;;;39.72;3.03;;;;;;;-142.70;100.00;60390.16;4700460;30;20032;-77
2021/05/04 08:11:01;;;;;;;3.15;2.47;;;;;;;-142.70;100.00;60390.16;4715816;30;20069;-77
2021/05/04 08:13:27;;;;;;;5.57;2.90;;;;;;;-142.70;100.00;60390.16;4714722;30;20043;-78
2021/05/04 08:15:53;;;;;;;3.40;2.38;;;;;;;-142.70;100.00;60390.16;4730307;30;20120;-76
2021/05/04 08:18:18;;;;;;;3.80;2.17;;;;;;;-142.70;100.00;60390.16;4714836;30;20040;-77
2021/05/04 08:20:47;;;;;;;3.05;2.17;;;;;;;-142.70;100.00;60390.16;4715804;30;20468;-77
2021/05/04 08:23:14;;;;;;;2.75;2.10;;;;;;;-142.70;100.00;60390.16;4716017;30;20032;-77
2021/05/04 08:25:39;;;;;;;3.05;2.20;;;;;;;-142.70;100.00;60390.16;4714108;30;20044;-77
2021/05/04 08:28:05;;;;;;;2.20;2.00;;;;;;;-142.70;100.00;60390.16;4715333;30;20498;-76
2021/05/04 08:30:30;;;;;;;2.25;1.92;;;;;;;-142.70;100.00;60390.16;4729249;30;20040;-77
2021/05/04 08:32:56;;;;;;;3.25;2.50;;;;;;;-142.70;100.00;60390.16;4731086;30;20037;-77
2021/05/04 08:35:22;;;;;;;3.28;2.05;;;;;;;-142.70;100.00;60390.16;4720393;30;20044;-77
2021/05/04 08:37:48;;;;;;;2.20;2.00;;;;;;;-142.70;100.00;60390.16;4701016;30;20040;-77
2021/05/04 08:40:13;;;;;;;11.30;5.32;;;;;;;-142.70;100.00;60390.16;4699515;30;20040;-76
2021/05/04 08:42:38;;;;;;;10.23;5.75;;;;;;;-142.70;100.00;60390.16;4715287;30;20123;-77
2021/05/04 08:45:05;;;;;;;6.28;2.65;;;;;;;-142.70;100.00;60390.16;4715407;30;20422;-76
2021/05/04 08:47:30;;;;;;;7.60;2.35;;;;;;;-142.70;100.00;60390.16;4699717;30;20570;-76
2021/05/04 08:49:56;;;;;;;3.58;1.95;;;;;;;-142.70;100.00;60390.16;4725012;30;20063;-77
2021/05/04 08:52:21;;;;;;;33.75;18.58;;;;;;;-142.70;100.00;60390.16;4713081;30;20721;-77
2021/05/04 08:54:47;;;;;;;3.35;1.92;;;;;;;-142.70;100.00;60390.16;4714203;30;20044;-77
2021/05/04 08:57:13;;;;;;;2.25;1.63;;;;;;;-142.70;100.00;60390.16;4713138;30;20040;-76
2021/05/04 08:59:38;;;;;;;5.72;2.95;;;;;;;-142.70;100.00;60390.16;4728683;30;20037;-76
2021/05/04 09:02:04;;;;;;;4.03;2.25;;;;;;;-142.70;100.00;60390.16;4699323;30;20032;-76
2021/05/04 09:07:31;;;;;;;4.77;2.03;;;;;;;-142.70;100.00;60390.16;4702807;30;20135;-77
2021/05/04 09:10:18;;;;;;;2.45;1.70;;;;;;;-142.70;100.00;60390.16;4713624;30;20283;-77
2021/05/04 09:13:04;;;;;;;2.30;2.00;;;;;;;-142.70;100.00;60390.16;4714955;30;20047;-77
2021/05/04 09:21:13;;;;;;;6.45;2.30;;;;;;;-142.70;100.00;60390.16;4729602;30;20478;-77
2021/05/04 09:23:42;;;;;;;3.75;2.22;;;;;;;-142.70;100.00;60390.16;4729782;30;20037;-78
2021/05/04 09:26:18;;;;;;;1.75;1.65;;;;;;;-142.70;100.00;60390.16;4713622;30;20067;-76
2021/05/04 09:28:52;;;;;;;2.15;1.67;;;;;;;-142.70;100.00;60390.16;4713707;30;20095;-78
2021/05/04 09:31:22;;;;;;;4.45;1.60;;;;;;;-142.70;100.00;60390.16;4708399;30;20632;-76
2021/05/04 09:33:47;;;;;;;2.53;1.55;;;;;;;-142.70;100.00;60390.16;4688996;30;20472;-76
2021/05/04 09:36:39;;;;;;;2.33;1.92;;;;;;;-142.70;100.00;60390.16;4722810;30;20041;-76
2021/05/04 09:39:05;;;;;;;3.25;1.77;;;;;;;-142.70;100.00;60390.16;4722923;30;20045;-76
2021/05/04 09:41:31;;;;;;;2.53;1.90;;;;;;;-142.70;100.00;60390.16;4712559;30;20066;-76
2021/05/04 09:43:56;;;;;;;2.55;1.85;;;;;;;-142.70;100.00;60390.16;4717860;30;20384;-76
2021/05/04 09:46:42;;;;;;;3.20;1.75;;;;;;;-142.70;100.00;60390.16;4713467;30;20128;-76
2021/05/04 09:49:30;;;;;;;7.00;2.67;;;;;;;-142.70;100.00;60390.16;4708544;30;20080;-76
2021/05/04 09:52:58;;;;;;;4.60;1.73;;;;;;;-142.70;100.00;60390.16;4702328;30;20028;-76
2021/05/04 09:55:05;;;;;;;6.45;2.83;;;;;;;-142.70;100.00;60390.16;4715110;30;20135;-76
2021/05/04 09:57:52;;;;;;;2.20;1.95;;;;;;;-142.70;100.00;60390.16;4715057;30;20040;-76
2021/05/04 10:00:20;;;;;;;2.65;2.45;;;;;;;-142.70;100.00;60390.16;4722676;30;20100;-75
2021/05/04 10:02:48;;;;;;;3.67;2.50;;;;;;;-142.70;100.00;60390.16;4712970;30;20445;-75
2021/05/04 10:05:15;;;;;;;3.60;2.30;;;;;;;-142.70;100.00;60390.16;4712959;30;20419;-76
2021/05/04 10:07:41;;;;;;;2.17;1.60;;;;;;;-142.70;100.00;60390.16;4716277;30;20025;-76
2021/05/04 10:10:08;;;;;;;3.42;2.45;;;;;;;-142.70;100.00;60390.16;4729519;30;20043;-76
2021/05/04 10:12:33;;;;;;;1.70;1.60;;;;;;;-142.70;100.00;60390.16;4698065;30;20238;-76
2021/05/04 10:15:01;;;;;;;1.98;1.80;;;;;;;-142.70;100.00;60390.16;4712144;30;20135;-76
2021/05/04 10:17:26;;;;;;;8.55;2.38;;;;;;;-142.70;100.00;60390.16;4718439;30;20407;-76
2021/05/04 10:19:51;;;;;;;2.88;1.65;;;;;;;-142.70;100.00;60390.16;4707689;30;20032;-76
2021/05/04 10:22:17;;;;;;;2.72;1.77;;;;;;;-142.70;100.00;60390.16;4710805;30;20032;-76
2021/05/04 10:24:43;;;;;;;3.45;1.90;;;;;;;-142.70;100.00;60390.16;4690495;30;20029;-76
2021/05/04 10:27:08;;;;;;;2.70;1.50;;;;;;;-142.70;100.00;60390.16;4708636;30;20045;-77
2021/05/04 10:29:38;;;;;;;6.80;1.98;;;;;;;-142.70;100.00;60390.16;4702206;30;20495;-76
2021/05/04 10:32:04;;;;;;;;;;;;;;;-142.70;100.00;60390.16;4705556;30;20040;-76
2021/05/04 10:34:34;;;;;;;6.55;1.73;;;;;;;-142.70;100.00;60390.16;4710851;30;20385;-76
2021/05/04 10:37:03;;;;;;;3.72;1.85;;;;;;;-142.70;100.00;60390.16;4705759;30;20044;-76
2021/05/04 10:39:38;;;;;;;3.17;1.52;;;;;;;-142.70;100.00;60390.16;4672649;30;20045;-77
2021/05/04 10:42:05;;;;;;;2.33;1.70;;;;;;;-142.70;100.00;60390.16;4723600;30;20033;-77
2021/05/04 10:44:51;;;;;;;3.83;1.40;;;;;;;-142.70;100.00;60390.16;4721596;30;20171;-76
2021/05/04 10:47:47;;;;;;;1.88;1.70;;;;;;;-142.70;100.00;60390.16;4695745;30;20124;-77
2021/05/04 10:50:13;;;;;;;2.97;1.80;;;;;;;-142.70;100.00;60390.16;4709143;30;20130;-77
2021/05/04 10:52:52;;;;;;;3.00;1.70;;;;;;;-142.70;100.00;60390.16;4698689;30;20569;-77
2021/05/04 10:55:19;;;;;;;3.05;1.92;;;;;;;-142.70;100.00;60390.16;4718303;30;20094;-77
2021/05/04 10:58:08;;;;;;;2.88;1.45;;;;;;;-142.70;100.00;60390.16;4699047;30;20107;-76
2021/05/04 11:00:56;;;;;;;2.17;1.90;;;;;;;-142.70;100.00;60390.16;4712752;30;20041;-78
2021/05/04 11:03:31;;;;;;;10.60;1.92;;;;;;;-142.70;100.00;60390.16;4730610;30;20038;-76
2021/05/04 11:05:57;;;;;;;2.22;1.73;;;;;;;-142.70;100.00;60390.16;4729465;30;20462;-76
2021/05/04 11:08:23;;;;;;;4.28;1.98;;;;;;;-142.70;100.00;60390.16;4700404;30;20028;-77
2021/05/04 11:11:19;;;;;;;2.45;2.00;;;;;;;-142.70;100.00;60390.16;4729773;30;20033;-76
2021/05/04 11:13:46;;;;;;;1.70;1.60;;;;;;;-142.70;100.00;60390.16;4729611;30;20128;-76
2021/05/04 11:16:31;;;;;;;4.13;1.73;;;;;;;-142.70;100.00;60390.16;4730197;30;20739;-76
2021/05/04 11:19:09;;;;;;;1.60;1.50;;;;;;;-142.70;100.00;60390.16;4729164;30;20050;-76
2021/05/04 11:21:48;;;;;;;5.40;2.23;;;;;;;-142.70;100.00;60390.16;4715990;30;20033;-77
2021/05/04 11:24:20;;;;;;;2.15;1.88;;;;;;;-142.70;100.00;60390.16;4729317;30;20052;-76
2021/05/04 11:26:46;;;;;;;1.88;1.77;;;;;;;-142.70;100.00;60390.16;4695122;30;20474;-76
2021/05/04 11:29:14;;;;;;;2.00;1.80;;;;;;;-142.70;100.00;60390.16;4680396;30;20481;-76
2021/05/04 11:31:52;;;;;;;1.88;1.58;;;;;;;-142.70;100.00;60390.16;4720026;30;20049;-76
2021/05/04 11:34:43;;;;;;;2.15;1.77;;;;;;;-142.70;100.00;60390.16;4730431;30;20039;-77
2021/05/04 11:37:13;;;;;;;7.68;1.95;;;;;;;-142.70;100.00;60390.16;4727910;30;20109;-77
2021/05/04 11:39:50;;;;;;;4.57;1.80;;;;;;;-142.70;100.00;60390.16;4729196;30;20044;-76
2021/05/04 11:42:15;;;;;;;5.70;1.80;;;;;;;-142.70;100.00;60390.16;4714230;30;20039;-76
2021/05/04 11:44:41;;;;;;;2.92;1.77;;;;;;;-142.70;100.00;60390.16;4712528;30;20044;-76
2021/05/04 11:47:26;;;;;;;5.35;1.80;;;;;;;-142.70;100.00;60390.16;4714202;30;20087;-76
2021/05/04 11:50:09;;;;;;;2.70;1.80;;;;;;;-142.70;100.00;60390.16;4737611;30;20056;-76
2021/05/04 11:52:35;;;;;;;5.43;2.13;;;;;;;-142.70;100.00;60390.16;4740321;30;20032;-77
2021/05/04 11:55:20;;;;;;;3.35;1.85;;;;;;;-142.70;100.00;60390.16;4743210;30;20506;-76
2021/05/04 11:57:48;;;;;;;4.90;2.03;;;;;;;-142.70;100.00;60390.16;4712018;30;20565;-77
2021/05/04 12:00:20;;;;;;;4.25;1.75;;;;;;;-142.70;100.00;60390.16;4728531;30;20045;-76
2021/05/04 12:02:46;;;;;;;4.20;1.98;;;;;;;-142.70;100.00;60390.16;4727452;30;20035;-75
2021/05/04 12:05:14;;;;;;;2.97;1.58;;;;;;;-142.70;100.00;60390.16;4727596;30;20029;-76
2021/05/04 12:07:44;;;;;;;2.95;1.83;;;;;;;-142.70;100.00;60390.16;4727734;30;20036;-76
2021/05/04 12:10:16;;;;;;;4.15;1.60;;;;;;;-142.70;100.00;60390.16;4728625;30;20032;-77
2021/05/04 12:12:51;;;;;;;3.10;1.60;;;;;;;-142.70;100.00;60390.16;4728914;30;20036;-76
2021/05/04 12:15:19;;;;;;;2.95;1.80;;;;;;;-142.70;100.00;60390.16;4701796;30;20038;-76
2021/05/04 12:18:06;;;;;;;3.10;1.65;;;;;;;-142.70;100.00;60390.16;4702340;30;20068;-76
2021/05/04 12:20:44;;;;;;;2.35;1.70;;;;;;;-142.70;100.00;60390.16;4723085;30;20406;-76
2021/05/04 12:23:11;;;;;;;4.13;1.60;;;;;;;-142.70;100.00;60390.16;4712571;30;20275;-76
2021/05/04 12:25:51;;;;;;;2.30;2.00;;;;;;;-142.70;100.00;60390.16;4713963;30;20133;-76
2021/05/04 12:28:22;;;;;;;6.57;1.90;;;;;;;-142.70;100.00;60390.16;4705686;30;20033;-77
2021/05/04 12:30:48;;;;;;;2.10;1.83;;;;;;;-142.70;100.00;60390.16;4710658;30;20079;-76
2021/05/04 12:33:15;;;;;;;3.33;1.80;;;;;;;-142.70;100.00;60390.16;4711451;30;20071;-77
2021/05/04 12:35:44;;;;;;;2.22;1.85;;;;;;;-142.70;100.00;60390.16;4695509;30;20111;-76
2021/05/04 12:38:10;;;;;;;3.43;1.87;;;;;;;-142.70;100.00;60390.16;4727090;30;20059;-76
2021/05/04 12:40:38;;;;;;;2.92;1.85;;;;;;;-142.70;100.00;60390.16;4728173;30;20041;-76
2021/05/04 12:43:18;;;;;;;2.35;1.90;;;;;;;-142.70;100.00;60390.16;4696702;30;20037;-76
2021/05/04 12:46:02;;;;;;;3.05;1.70;;;;;;;-142.70;100.00;60390.16;4695204;30;20037;-76
2021/05/04 12:48:28;;;;;;;3.70;1.95;;;;;;;-142.70;100.00;60390.16;4724358;30;20052;-76
2021/05/04 12:50:57;;;;;;;4.55;1.80;;;;;;;-142.70;100.00;60390.16;4730563;30;20118;-77
2021/05/04 12:53:31;;;;;;;2.03;1.75;;;;;;;-142.70;100.00;60390.16;4729567;30;20032;-77
2021/05/04 12:56:00;;;;;;;5.22;1.70;;;;;;;-142.70;100.00;60390.16;4731269;30;20050;-77
2021/05/04 12:58:25;;;;;;;1.92;1.63;;;;;;;-142.70;100.00;60390.16;4745445;30;20060;-76
2021/05/04 13:01:07;;;;;;;2.50;1.88;;;;;;;-142.70;100.00;60390.16;4745288;30;20154;-76
2021/05/04 13:03:50;;;;;;;1.92;1.77;;;;;;;-142.70;100.00;60390.16;4730178;30;20028;-76
2021/05/04 13:06:21;;;;;;;3.67;1.90;;;;;;;-142.70;100.00;60390.16;4743539;30;20549;-76
2021/05/04 13:09:08;;;;;;;2.90;1.80;;;;;;;-142.70;100.00;60390.16;4699860;30;20064;-75
2021/05/04 13:11:39;;;;;;;3.70;1.67;;;;;;;-142.70;100.00;60390.16;4700269;30;20036;-76
2021/05/04 13:14:23;;;;;;;2.55;1.63;;;;;;;-142.70;100.00;60390.16;4698964;30;20456;-76
2021/05/04 13:17:12;;;;;;;3.63;2.08;;;;;;;-142.70;100.00;60390.16;4714874;30;20033;-75
2021/05/04 13:31:37;;;;;;;2.85;1.73;;;;;;;-142.70;100.00;60390.16;4713922;30;20040;-76
2021/05/04 13:34:04;;;;;;;2.75;2.00;;;;;;;-142.70;100.00;60390.16;4698411;30;20524;-76
2021/05/04 13:36:30;;;;;;;8.02;2.38;;;;;;;-142.70;100.00;60390.16;4711885;30;20048;-75
2021/05/04 13:49:49;;;;;;;2.67;1.58;;;;;;;-142.70;100.00;60390.16;4726298;30;20142;-75
2021/05/04 13:52:14;;;;;;;2.85;2.30;;;;;;;-142.70;100.00;60390.16;4744481;30;20040;-76
2021/05/04 13:54:40;;;;;;;2.05;1.85;;;;;;;-142.70;100.00;60390.16;4728999;30;20047;-76
2021/05/04 13:57:05;;;;;;;1.55;1.45;;;;;;;-142.70;100.00;60390.16;4729982;30;20117;-76
2021/05/04 13:59:31;;;;;;;5.07;1.65;;;;;;;-142.70;100.00;60390.16;4729279;30;20089;-76
2021/05/04 14:02:03;;;;;;;2.58;1.75;;;;;;;-142.70;100.00;60390.16;4726069;30;20044;-76
2021/05/04 14:07:28;;;;;;;2.88;1.80;;;;;;;-142.70;100.00;60390.16;4744667;30;20029;-76
2021/05/04 14:28:20;;;;;;;3.22;1.80;;;;;;;-142.70;100.00;60390.16;4744283;30;20032;-76
2021/05/04 14:30:45;;;;;;;3.58;2.60;;;;;;;-142.70;100.00;60390.16;4730986;30;20443;-76
2021/05/04 14:33:11;;;;;;;3.97;2.15;;;;;;;-142.70;100.00;60390.16;4731140;30;20036;-75
2021/05/04 14:35:43;;;;;;;2.97;2.75;;;;;;;-142.70;100.00;60390.16;4747002;30;20534;-75
2021/05/04 14:38:29;;;;;;;2.42;2.20;;;;;;;-142.70;100.00;60390.16;4726194;30;20478;-75
2021/05/04 14:56:59;;;;;;;2.60;2.15;;;;;;;-142.70;100.00;60390.16;4716079;30;20483;-75
2021/05/04 14:59:29;;;;;;;6.47;2.80;;;;;;;-142.70;100.00;60390.16;4715864;30;20036;-76
2021/05/04 15:01:55;;;;;;;2.25;2.05;;;;;;;-142.70;100.00;60390.16;4715491;30;20039;-76
2021/05/04 15:04:20;;;;;;;7.55;2.42;;;;;;;-142.70;100.00;60390.16;4713857;30;20032;-76
2021/05/04 15:06:46;;;;;;;2.80;2.33;;;;;;;-142.70;100.00;60390.16;4697174;30;20072;-75
2021/05/04 15:09:15;;;;;;;4.88;2.45;;;;;;;-142.70;100.00;60390.16;4718452;30;20032;-75
2021/05/04 15:11:46;;;;;;;5.63;2.40;;;;;;;-142.70;100.00;60390.16;4694905;30;20048;-76
2021/05/04 15:14:57;;;;;;;6.28;3.08;;;;;;;-142.70;100.00;60390.16;4715406;30;20048;-77
2021/05/04 15:16:59;;;;;;;3.22;2.40;;;;;;;-142.70;100.00;60390.16;4710347;30;20053;-76
2021/05/04 15:22:12;;;;;;;3.33;3.00;;;;;;;-142.70;100.00;60390.16;4735020;30;20103;-75
2021/05/04 15:24:37;;;;;;;2.47;2.28;;;;;;;-142.70;100.00;60390.16;4723341;30;20066;-75
2021/05/04 15:27:03;;;;;;;2.38;2.17;;;;;;;-142.70;100.00;60390.16;4707284;30;20029;-75
2021/05/04 15:29:29;;;;;;;3.10;2.22;;;;;;;-142.70;100.00;60390.16;4715162;30;20090;-76
2021/05/04 15:31:59;;;;;;;2.75;2.50;;;;;;;-142.70;100.00;60390.16;4717690;30;20474;-75
2021/05/04 15:34:25;;;;;;;3.85;2.72;;;;;;;-142.70;100.00;60390.16;4700622;30;20032;-75
2021/05/04 15:36:51;;;;;;;3.88;2.72;;;;;;;-142.70;100.00;60390.16;4701172;30;20396;-74
2021/05/04 15:39:16;;;;;;;6.88;2.42;;;;;;;-142.70;100.00;60390.16;4710757;30;20072;-73
2021/05/04 15:41:42;;;;;;;3.78;2.33;;;;;;;-142.70;100.00;60390.16;4712623;30;20492;-75
2021/05/04 15:44:09;;;;;;;5.95;2.80;;;;;;;-142.70;100.00;60390.16;4711582;30;20111;-73
2021/05/04 15:46:52;;;;;;;4.78;3.20;;;;;;;-142.70;100.00;60390.16;4699955;30;20079;-73
2021/05/04 15:49:31;;;;;;;4.78;3.10;;;;;;;-142.70;100.00;60390.16;4732768;30;20063;-73
2021/05/04 15:52:16;;;;;;;5.85;3.20;;;;;;;-142.70;100.00;60390.16;4718104;30;20052;-73
2021/05/04 16:08:22;;;;;;;11.45;3.90;;;;;;;-142.70;100.00;60390.16;4744429;30;20419;-76
2021/05/04 16:10:48;;;;;;;4.65;3.20;;;;;;;-142.70;100.00;60390.16;4732231;30;20533;-73
2021/05/04 16:13:13;;;;;;;4.15;3.75;;;;;;;-142.70;100.00;60390.16;4726985;30;20068;-75
2021/05/04 16:15:40;;;;;;;6.85;3.33;;;;;;;-142.70;100.00;60390.16;4727880;30;20396;-73
2021/05/04 16:18:05;;;;;;;5.28;3.60;;;;;;;-142.70;100.00;60390.16;4730486;30;20029;-72
2021/05/04 16:23:04;;;;;;;8.50;3.58;;;;;;;-142.70;100.00;60390.16;4731448;30;20032;-73
2021/05/04 16:25:51;;;;;;;5.93;3.47;;;;;;;-142.70;100.00;60390.16;4745708;30;20512;-72
2021/05/04 16:30:45;;;;;;;3.72;2.90;;;;;;;-142.70;100.00;60390.16;4730153;30;21095;-75
2021/05/04 16:33:10;;;;;;;4.90;3.30;;;;;;;-142.70;100.00;60390.16;4730285;30;20036;-72
2021/05/04 16:35:36;;;;;;;4.57;2.80;;;;;;;-142.70;100.00;60390.16;4730486;30;20503;-73
2021/05/04 16:38:01;;;;;;;5.22;3.38;;;;;;;-142.70;100.00;60390.16;4745414;30;20035;-73
2021/05/04 16:40:28;;;;;;;3.97;3.20;;;;;;;-142.70;100.00;60390.16;4729912;30;20064;-73
2021/05/04 16:42:54;;;;;;;5.03;3.63;;;;;;;-142.70;100.00;60390.16;4708516;30;20419;-72
2021/05/04 16:45:20;;;;;;;3.55;3.22;;;;;;;-142.70;100.00;60390.16;4744794;30;20072;-75
2021/05/04 16:47:45;;;;;;;6.65;3.60;;;;;;;-142.70;100.00;60390.16;4744361;30;20051;-75
2021/05/04 16:50:12;;;;;;;5.38;3.38;;;;;;;-142.70;100.00;60390.16;4716701;30;20054;-74
2021/05/04 16:52:37;;;;;;;7.68;3.95;;;;;;;-142.70;100.00;60390.16;4711203;30;20037;-74
2021/05/04 16:55:03;;;;;;;6.53;3.80;;;;;;;-142.70;100.00;60390.16;4711544;30;20082;-75
2021/05/04 16:57:29;;;;;;;8.25;4.22;;;;;;;-142.70;100.00;60390.16;4729276;30;20036;-77
2021/05/04 16:59:55;;;;;;;5.38;4.10;;;;;;;-142.70;100.00;60390.16;4697301;30;20733;-75
2021/05/04 17:02:21;;;;;;;8.32;3.70;;;;;;;-142.70;100.00;60390.16;4698605;30;20492;-75
2021/05/04 17:04:46;;;;;;;6.13;3.67;;;;;;;-142.70;100.00;60390.16;4710970;30;20651;-78
2021/05/04 17:07:28;;;;;;;5.55;3.53;;;;;;;-142.70;100.00;60390.16;4710778;30;20029;-76
2021/05/04 17:12:21;;;;;;;5.32;3.40;;;;;;;-142.70;100.00;60390.16;4693244;30;20048;-75
2021/05/04 17:14:46;;;;;;;5.03;3.45;;;;;;;-142.70;100.00;60390.16;4697019;30;20040;-74
2021/05/04 17:17:11;;;;;;;5.38;3.35;;;;;;;-142.70;100.00;60390.16;4723210;30;20727;-77
2021/05/04 17:19:37;;;;;;;9.98;3.03;;;;;;;-142.70;100.00;60390.16;4695848;30;20416;-76
2021/05/04 17:22:03;;;;;;;9.20;3.33;;;;;;;-142.70;100.00;60390.16;4695924;30;20033;-78
2021/05/04 17:24:29;;;;;;;4.72;3.17;;;;;;;-142.70;100.00;60390.16;4727544;30;20415;-77
2021/05/04 17:26:54;;;;;;;7.05;3.35;;;;;;;-142.70;100.00;60390.16;4697481;30;20043;-79
2021/05/04 17:29:20;;;;;;;7.25;2.78;;;;;;;-142.70;100.00;60390.16;4697815;30;20037;-77
2021/05/04 17:31:45;;;;;;;3.70;2.85;;;;;;;-142.70;100.00;60390.16;4697752;30;20032;-75
2021/05/04 17:34:13;;;;;;;4.60;2.92;;;;;;;-142.70;100.00;60390.16;4697626;30;20115;-78
2021/05/04 17:36:38;;;;;;;3.20;2.90;;;;;;;-142.70;100.00;60390.16;4713116;30;20428;-74
2021/05/04 17:39:05;;;;;;;4.20;3.15;;;;;;;-142.70;100.00;60390.16;4711755;30;20476;-77
2021/05/04 17:41:31;;;;;;;3.72;3.30;;;;;;;-142.70;100.00;60390.16;4712940;30;20095;-78
2021/05/04 17:43:57;;;;;;;5.22;2.75;;;;;;;-142.70;100.00;60390.16;4711569;30;20127;-78
2021/05/04 17:46:23;;;;;;;3.03;2.83;;;;;;;-142.70;100.00;60390.16;4712929;30;20060;-77
2021/05/04 17:48:49;;;;;;;2.90;2.60;;;;;;;-142.70;100.00;60390.16;4709115;30;20064;-77
2021/05/04 17:51:15;;;;;;;3.80;2.78;;;;;;;-142.70;100.00;60390.16;4726855;30;20065;-79